Terminal Aerodrome Forecast
Issued by NWS

Home | Current Version | Previous Version | Text Only | Print | Product List | Glossary On
Versions: 1 2 3 4 5 6 7 8 9 10 11 12 13 14
000
FTUS43 KDDC 072033 AAF
TAFGCK
TAF AMD
KGCK 072033Z 0721/0818 03013G20KT P6SM BKN015
     FM080200 01011G17KT P6SM BKN050
     FM080400 36010KT P6SM SKC=

USA.gov is the U.S. government's official web portal to all federal, state and local government web resources and services.